createdAt,value
2023-03-26T00:01:21.289Z,6.03
2023-03-26T00:03:54.523Z,8.25
2023-03-26T00:06:23.204Z,8.15
2023-03-26T00:08:50.880Z,4.28
2023-03-26T00:11:19.382Z,2.58
2023-03-26T00:13:46.695Z,10.13
2023-03-26T00:16:17.103Z,9.32
2023-03-26T00:18:44.464Z,5.20
2023-03-26T00:21:14.569Z,7.05
2023-03-26T00:23:41.595Z,8.02
2023-03-26T00:26:11.304Z,9.27
2023-03-26T00:28:42.197Z,6.85
2023-03-26T00:31:11.423Z,7.43
2023-03-26T00:33:38.690Z,10.02
2023-03-26T00:36:10.020Z,3.60
2023-03-26T00:38:39.089Z,5.95
2023-03-26T00:41:18.609Z,6.47
2023-03-26T00:43:46.504Z,8.77
2023-03-26T00:46:13.261Z,8.23
2023-03-26T00:48:45.533Z,4.13
2023-03-26T00:51:16.022Z,4.35
2023-03-26T00:53:44.202Z,7.95
2023-03-26T00:56:11.464Z,6.35
2023-03-26T00:58:38.018Z,6.07
2023-03-26T01:01:08.911Z,11.02
2023-03-26T01:03:38.405Z,4.32
2023-03-26T01:06:16.895Z,7.47
2023-03-26T01:08:46.591Z,17.60
2023-03-26T01:11:17.426Z,26.50
2023-03-26T01:13:49.590Z,36.25
2023-03-26T01:16:22.356Z,45.60
2023-03-26T01:18:51.562Z,57.00
2023-03-26T01:21:23.483Z,64.78
2023-03-26T01:24:05.104Z,80.30
2023-03-26T01:26:52.891Z,93.07
2023-03-26T01:29:28.235Z,107.05
2023-03-26T01:32:09.461Z,123.75
2023-03-26T01:34:52.458Z,138.53
2023-03-26T01:37:33.624Z,156.73
2023-03-26T07:14:12.289Z,16.38
2023-03-26T07:16:38.673Z,17.42
2023-03-26T07:19:05.092Z,17.92
2023-03-26T07:21:31.952Z,10.15
2023-03-26T07:23:58.578Z,13.68
2023-03-26T07:26:49.572Z,11.65
2023-03-26T07:29:34.732Z,17.60
2023-03-26T07:32:28.063Z,18.27
2023-03-26T07:35:21.903Z,18.92
2023-03-26T07:38:07.092Z,15.70
2023-03-26T07:41:04.247Z,15.98
2023-03-26T07:43:44.330Z,11.02
2023-03-26T07:46:12.661Z,16.92
2023-03-26T07:48:44.412Z,12.43
2023-03-26T07:51:12.360Z,14.70
2023-03-26T07:53:38.966Z,13.43
2023-03-26T07:56:17.661Z,18.90
2023-03-26T07:59:06.812Z,18.65
2023-03-26T08:01:57.631Z,14.68
2023-03-26T08:04:41.341Z,17.27
2023-03-26T08:07:20.514Z,12.88
2023-03-26T08:10:26.181Z,14.13
2023-03-26T08:13:22.555Z,15.45
2023-03-26T08:16:30.232Z,16.38
2023-03-26T08:19:11.114Z,14.43
2023-03-26T08:21:47.995Z,15.60
2023-03-26T08:24:24.555Z,12.68
2023-03-26T08:27:02.647Z,16.80
2023-03-26T08:30:14.009Z,14.43
2023-03-26T08:32:40.969Z,11.52
2023-03-26T08:35:11.502Z,16.92
2023-03-26T08:37:39.137Z,16.13
2023-03-26T08:40:06.656Z,15.02
2023-03-26T08:43:10.455Z,14.25
2023-03-26T08:46:10.661Z,14.45
2023-03-26T08:49:01.446Z,17.25
2023-03-26T08:51:27.981Z,15.95
2023-03-26T08:54:23.205Z,15.00
2023-03-26T08:57:03.815Z,13.82
2023-03-26T09:00:01.268Z,8.85
2023-03-26T09:02:53.445Z,15.70
2023-03-26T09:05:42.589Z,13.25
2023-03-26T09:08:30.047Z,12.93
2023-03-26T09:11:26.198Z,9.27
2023-03-26T09:14:32.708Z,10.85
2023-03-26T09:16:59.093Z,18.15
2023-03-26T09:19:54.874Z,16.30
2023-03-26T09:22:45.966Z,19.23
2023-03-26T09:25:34.525Z,12.15
2023-03-26T09:28:30.151Z,14.30
2023-03-26T09:31:16.779Z,13.63
2023-03-26T09:33:56.357Z,13.75
2023-03-26T09:36:42.389Z,14.48
2023-03-26T09:39:46.184Z,14.18
2023-03-26T09:42:27.798Z,8.52
2023-03-26T09:45:22.549Z,16.67
2023-03-26T09:48:10.821Z,10.80
2023-03-26T09:51:04.583Z,14.65
2023-03-26T09:53:56.862Z,12.98
2023-03-26T09:56:44.802Z,20.55
2023-03-26T09:59:29.709Z,17.40
2023-03-26T10:02:45.571Z,40.28
2023-03-26T10:05:41.403Z,11.40
2023-03-26T10:08:22.684Z,9.82
2023-03-26T10:10:57.506Z,10.87
2023-03-26T10:13:58.880Z,11.55
2023-03-26T10:16:41.760Z,11.63
2023-03-26T10:19:26.058Z,13.90
2023-03-26T10:22:14.367Z,15.48
2023-03-26T10:25:20.405Z,11.38
2023-03-26T10:28:13.134Z,9.32
2023-03-26T10:30:58.627Z,10.63
2023-03-26T10:33:31.344Z,9.95
2023-03-26T10:36:23.197Z,12.73
2023-03-26T10:39:09.740Z,11.05
2023-03-26T10:42:04.989Z,10.95
2023-03-26T10:45:14.906Z,7.75
2023-03-26T10:48:19.058Z,9.80
2023-03-26T10:51:13.070Z,7.60
2023-03-26T10:54:22.692Z,12.18
2023-03-26T10:56:52.671Z,10.55
2023-03-26T10:59:19.206Z,7.80
2023-03-26T11:01:58.557Z,12.02
2023-03-26T11:04:40.841Z,11.95
2023-03-26T11:10:12.639Z,8.70
2023-03-26T11:13:04.979Z,11.57
2023-03-26T11:18:19.998Z,7.28
2023-03-26T11:21:19.733Z,8.02
2023-03-26T11:24:05.050Z,7.80
2023-03-26T11:26:44.468Z,13.40
2023-03-26T11:29:34.166Z,8.88
2023-03-26T11:32:10.508Z,11.48
2023-03-26T11:34:59.702Z,9.25
2023-03-26T11:37:33.680Z,6.45
2023-03-26T11:40:06.417Z,6.63
2023-03-26T11:42:33.105Z,9.82
2023-03-26T11:45:05.854Z,9.35
2023-03-26T11:47:38.561Z,13.88
2023-03-26T11:50:10.996Z,8.48
2023-03-26T11:52:37.409Z,10.90
2023-03-26T11:55:04.185Z,10.10
2023-03-26T11:57:34.655Z,11.07
2023-03-26T12:00:16.155Z,10.57
2023-03-26T12:02:42.911Z,6.40
2023-03-26T12:05:16.621Z,8.95
2023-03-26T12:07:58.424Z,8.98
2023-03-26T12:10:26.969Z,10.70
2023-03-26T12:12:59.495Z,10.38
2023-03-26T12:15:27.251Z,7.40
2023-03-26T12:17:58.269Z,7.30
2023-03-26T12:20:25.247Z,8.73
2023-03-26T12:23:34.868Z,6.95
2023-03-26T12:26:12.116Z,7.38
2023-03-26T12:28:44.421Z,9.13
2023-03-26T12:31:18.129Z,7.70
2023-03-26T12:34:02.731Z,7.88
2023-03-26T12:36:33.340Z,6.85
2023-03-26T12:39:16.006Z,8.85
2023-03-26T12:44:43.668Z,8.38
2023-03-26T12:44:58.956Z,10.10
2023-03-26T12:47:57.214Z,10.65
2023-03-26T12:50:34.416Z,10.68
2023-03-26T12:53:33.967Z,9.70
2023-03-26T12:56:27.122Z,8.15
2023-03-26T12:58:56.679Z,9.25
2023-03-26T13:01:35.993Z,9.00
2023-03-26T13:04:34.108Z,11.30
2023-03-26T13:07:34.244Z,8.20
2023-03-26T13:10:37.296Z,9.35
2023-03-26T13:13:21.692Z,8.35
2023-03-26T13:15:59.528Z,6.30
2023-03-26T13:18:38.989Z,10.82
2023-03-26T13:21:12.851Z,7.30
2023-03-26T13:23:45.703Z,6.20
2023-03-26T13:26:44.267Z,8.98
2023-03-26T13:29:56.294Z,8.07
2023-03-26T13:32:44.105Z,9.52
2023-03-26T13:35:17.873Z,7.72
2023-03-26T13:37:53.780Z,7.93
2023-03-26T13:40:42.130Z,5.10
2023-03-26T13:43:14.286Z,6.75
2023-03-26T13:46:07.962Z,7.25
2023-03-26T13:48:52.813Z,8.02
2023-03-26T13:51:35.229Z,5.85
2023-03-26T13:54:23.684Z,6.07
2023-03-26T13:57:13.279Z,7.25
2023-03-26T13:59:46.579Z,5.55
2023-03-26T14:02:38.567Z,5.30
2023-03-26T14:05:21.287Z,5.22
2023-03-26T14:07:57.182Z,5.38
2023-03-26T14:10:28.874Z,6.57
2023-03-26T14:13:20.929Z,7.13
2023-03-26T14:15:49.531Z,6.07
2023-03-26T14:18:18.666Z,7.25
2023-03-26T14:21:11.492Z,5.25
2023-03-26T14:24:08.185Z,7.85
2023-03-26T14:27:05.681Z,5.20
2023-03-26T14:30:16.129Z,3.65
2023-03-26T14:33:12.874Z,3.80
2023-03-26T14:36:11.322Z,3.85
2023-03-26T14:38:40.575Z,3.20
2023-03-26T14:41:29.879Z,1.98
2023-03-26T14:44:48.670Z,3.92
2023-03-26T14:47:23.791Z,2.33
2023-03-26T14:50:12.119Z,2.10
2023-03-26T14:52:52.878Z,1.77
2023-03-26T14:56:18.177Z,5.35
2023-03-26T14:59:09.254Z,1.63
2023-03-26T17:51:40.483Z,7.75
2023-03-26T17:54:15.117Z,6.00
2023-03-26T17:56:42.800Z,4.72
2023-03-26T17:59:23.062Z,3.83
2023-03-26T18:01:53.137Z,5.47
2023-03-26T18:04:27.163Z,3.47
2023-03-26T18:07:19.401Z,6.18
2023-03-26T18:10:22.839Z,4.22
2023-03-26T18:13:04.605Z,3.08
2023-03-26T18:15:45.074Z,4.70
2023-03-26T18:18:37.754Z,4.13
2023-03-26T18:21:07.151Z,4.60
2023-03-26T18:23:39.871Z,6.65
2023-03-26T18:26:16.247Z,5.70
2023-03-26T18:28:45.242Z,2.03
2023-03-26T18:31:26.396Z,1.30
2023-03-26T18:33:59.219Z,2.40
2023-03-26T18:36:27.994Z,4.38
2023-03-26T18:38:58.520Z,2.35
2023-03-26T18:41:46.040Z,2.67
2023-03-26T18:44:18.666Z,1.58
2023-03-26T18:46:45.903Z,1.35
2023-03-26T18:49:17.764Z,2.55
2023-03-26T18:51:56.198Z,3.08
2023-03-26T18:54:24.912Z,2.45
2023-03-26T18:56:52.538Z,5.30
2023-03-26T18:59:28.450Z,3.92
2023-03-26T19:02:00.582Z,3.25
2023-03-26T19:06:56.848Z,6.60
2023-03-26T19:09:31.022Z,6.53
2023-03-26T19:12:06.595Z,3.05
2023-03-26T19:14:37.295Z,3.38
2023-03-26T19:17:07.250Z,4.32
2023-03-26T19:19:37.736Z,2.08
2023-03-26T19:22:07.133Z,1.75
2023-03-26T19:24:34.429Z,2.28
2023-03-26T19:27:01.296Z,1.63
2023-03-26T19:29:32.097Z,3.10
2023-03-26T19:32:04.399Z,2.33
2023-03-26T19:34:31.518Z,3.17
2023-03-26T19:37:01.397Z,2.13
2023-03-26T19:39:45.913Z,2.83
2023-03-26T19:42:16.191Z,2.38
2023-03-26T19:44:43.551Z,2.78
2023-03-26T19:47:17.951Z,1.63
2023-03-26T19:49:47.165Z,1.83
2023-03-26T19:52:33.334Z,1.40
2023-03-26T19:55:19.784Z,0.90
2023-03-26T19:57:46.169Z,1.00
2023-03-26T20:00:14.646Z,1.58
2023-03-26T20:02:42.291Z,1.05
2023-03-26T20:05:19.600Z,1.08
2023-03-26T20:07:45.957Z,1.80
2023-03-26T20:10:12.699Z,0.40
2023-03-26T20:12:39.025Z,2.97
2023-03-26T20:15:19.716Z,2.22
2023-03-26T20:17:57.749Z,1.98
2023-03-26T20:20:30.961Z,2.63
2023-03-26T20:22:57.872Z,1.83
2023-03-26T20:25:31.100Z,0.60
2023-03-26T20:27:58.985Z,1.95
2023-03-26T20:30:37.427Z,0.60
2023-03-26T20:33:12.440Z,0.52
2023-03-26T20:35:41.702Z,0.55
2023-03-26T20:38:09.542Z,1.58
2023-03-26T20:40:36.675Z,2.55
2023-03-26T20:43:03.033Z,0.88
2023-03-26T20:45:30.490Z,0.70
2023-03-26T20:47:57.337Z,1.17
2023-03-26T20:50:24.531Z,0.63
2023-03-26T20:52:51.169Z,1.02
2023-03-26T20:55:21.634Z,2.22
2023-03-26T20:57:48.627Z,3.00
2023-03-26T21:00:33.883Z,2.33
2023-03-26T21:03:00.451Z,2.33
2023-03-26T21:05:29.008Z,2.22
2023-03-26T21:08:20.096Z,1.60
2023-03-26T21:10:47.214Z,5.45
2023-03-26T21:13:43.908Z,3.05
2023-03-26T21:16:12.029Z,6.40
2023-03-26T21:18:39.892Z,4.90
2023-03-26T21:21:34.568Z,5.93
2023-03-26T21:24:17.881Z,4.25
2023-03-26T21:26:53.337Z,4.47
2023-03-26T21:29:19.939Z,5.25
2023-03-26T21:31:46.651Z,4.13
2023-03-26T21:34:14.111Z,11.05
2023-03-26T21:36:41.884Z,4.75
2023-03-26T21:39:10.933Z,4.80
2023-03-26T21:41:45.013Z,4.78
2023-03-26T21:44:11.678Z,4.07
2023-03-26T21:46:41.561Z,9.02
2023-03-26T21:49:08.393Z,8.73
2023-03-26T21:51:35.341Z,5.70
2023-03-26T21:54:02.549Z,6.15
2023-03-26T21:57:02.040Z,6.22
2023-03-26T21:59:51.841Z,4.70
2023-03-26T22:02:21.010Z,4.68
2023-03-26T22:04:53.630Z,7.15
2023-03-26T22:07:27.307Z,7.10
2023-03-26T22:09:53.910Z,5.50
2023-03-26T22:12:20.476Z,7.55
2023-03-26T22:14:47.339Z,5.95
2023-03-26T22:17:13.711Z,4.63
2023-03-26T22:19:40.107Z,6.57
2023-03-26T22:22:07.500Z,10.73
2023-03-26T22:24:34.281Z,11.05
2023-03-26T22:27:00.621Z,5.55
2023-03-26T22:29:29.588Z,6.43
2023-03-26T22:31:55.947Z,10.27
2023-03-26T22:34:23.537Z,5.25
2023-03-26T22:36:52.863Z,6.93
2023-03-26T22:39:19.203Z,8.23
2023-03-26T22:41:45.678Z,9.60
2023-03-26T22:44:19.914Z,9.43
2023-03-26T22:46:49.159Z,4.10
2023-03-26T22:49:16.204Z,11.30
2023-03-26T22:51:42.599Z,4.10
2023-03-26T22:54:09.470Z,4.80
2023-03-26T22:56:37.072Z,8.55
2023-03-26T22:59:05.896Z,7.53
2023-03-26T23:01:32.620Z,5.22
2023-03-26T23:03:59.034Z,8.80
2023-03-26T23:06:25.586Z,4.80
2023-03-26T23:08:52.279Z,10.60
2023-03-26T23:11:21.774Z,11.15
2023-03-26T23:13:48.113Z,11.70
2023-03-26T23:16:15.663Z,8.77
2023-03-26T23:18:42.275Z,10.40
2023-03-26T23:21:20.778Z,5.13
2023-03-26T23:23:49.184Z,14.02
2023-03-26T23:26:16.208Z,10.85
2023-03-26T23:28:43.234Z,7.15
2023-03-26T23:31:13.059Z,4.65
2023-03-26T23:33:45.934Z,7.53
2023-03-26T23:36:14.819Z,5.03
2023-03-26T23:38:44.263Z,9.48
2023-03-26T23:41:14.712Z,6.55
2023-03-26T23:43:54.162Z,10.73
2023-03-26T23:46:30.872Z,11.82
2023-03-26T23:49:02.296Z,8.65
2023-03-26T23:51:30.107Z,11.35
2023-03-26T23:53:56.917Z,13.75
2023-03-26T23:56:23.657Z,6.18
2023-03-26T23:58:50.164Z,12.23
